sensor_id;sensor_type;location;lat;lon;timestamp;P1;durP1;ratioP1;P2;durP2;ratioP2
26181;SDS011;13927;51.534;11.866;2022-10-30T00:02:17;19.20;;;14.52;;
26181;SDS011;13927;51.534;11.866;2022-10-30T00:04:43;23.63;;;15.70;;
26181;SDS011;13927;51.534;11.866;2022-10-30T00:07:09;23.10;;;16.23;;
26181;SDS011;13927;51.534;11.866;2022-10-30T00:09:37;23.25;;;15.23;;
26181;SDS011;13927;51.534;11.866;2022-10-30T00:12:03;22.20;;;15.77;;
26181;SDS011;13927;51.534;11.866;2022-10-30T00:14:29;20.58;;;15.85;;
26181;SDS011;13927;51.534;11.866;2022-10-30T00:16:55;20.05;;;15.65;;
26181;SDS011;13927;51.534;11.866;2022-10-30T00:19:21;20.58;;;15.23;;
26181;SDS011;13927;51.534;11.866;2022-10-30T00:21:46;22.85;;;15.98;;
26181;SDS011;13927;51.534;11.866;2022-10-30T00:24:12;20.98;;;14.30;;
26181;SDS011;13927;51.534;11.866;2022-10-30T00:26:38;20.77;;;16.42;;
26181;SDS011;13927;51.534;11.866;2022-10-30T00:29:03;21.85;;;15.48;;
26181;SDS011;13927;51.534;11.866;2022-10-30T00:31:29;25.23;;;15.30;;
26181;SDS011;13927;51.534;11.866;2022-10-30T00:33:55;26.15;;;16.35;;
26181;SDS011;13927;51.534;11.866;2022-10-30T00:36:21;23.52;;;16.45;;
26181;SDS011;13927;51.534;11.866;2022-10-30T00:38:47;28.02;;;17.10;;
26181;SDS011;13927;51.534;11.866;2022-10-30T00:41:14;26.92;;;16.52;;
26181;SDS011;13927;51.534;11.866;2022-10-30T00:43:42;22.15;;;15.77;;
26181;SDS011;13927;51.534;11.866;2022-10-30T00:46:19;23.70;;;15.85;;
26181;SDS011;13927;51.534;11.866;2022-10-30T00:48:56;21.27;;;14.80;;
26181;SDS011;13927;51.534;11.866;2022-10-30T00:51:30;21.00;;;15.27;;
26181;SDS011;13927;51.534;11.866;2022-10-30T00:53:58;21.55;;;14.82;;
26181;SDS011;13927;51.534;11.866;2022-10-30T00:56:27;20.35;;;16.10;;
26181;SDS011;13927;51.534;11.866;2022-10-30T00:58:56;24.55;;;17.27;;
26181;SDS011;13927;51.534;11.866;2022-10-30T01:01:27;26.05;;;17.38;;
26181;SDS011;13927;51.534;11.866;2022-10-30T01:03:58;20.52;;;17.40;;
26181;SDS011;13927;51.534;11.866;2022-10-30T01:06:25;19.30;;;14.95;;
26181;SDS011;13927;51.534;11.866;2022-10-30T01:08:53;25.30;;;17.63;;
26181;SDS011;13927;51.534;11.866;2022-10-30T01:11:19;22.75;;;17.92;;
26181;SDS011;13927;51.534;11.866;2022-10-30T01:13:45;28.75;;;20.05;;
26181;SDS011;13927;51.534;11.866;2022-10-30T01:16:25;28.38;;;18.85;;
26181;SDS011;13927;51.534;11.866;2022-10-30T01:37:35;24.10;;;16.83;;
26181;SDS011;13927;51.534;11.866;2022-10-30T01:40:21;26.08;;;19.00;;
26181;SDS011;13927;51.534;11.866;2022-10-30T01:42:52;23.67;;;16.98;;
26181;SDS011;13927;51.534;11.866;2022-10-30T01:48:40;24.92;;;18.50;;
26181;SDS011;13927;51.534;11.866;2022-10-30T01:59:44;19.20;;;15.88;;
26181;SDS011;13927;51.534;11.866;2022-10-30T02:02:18;22.15;;;16.35;;
26181;SDS011;13927;51.534;11.866;2022-10-30T02:04:44;21.70;;;16.00;;
26181;SDS011;13927;51.534;11.866;2022-10-30T02:07:10;21.13;;;15.90;;
26181;SDS011;13927;51.534;11.866;2022-10-30T02:09:36;17.58;;;15.15;;
26181;SDS011;13927;51.534;11.866;2022-10-30T02:12:04;24.05;;;16.23;;
26181;SDS011;13927;51.534;11.866;2022-10-30T02:14:31;25.38;;;16.90;;
26181;SDS011;13927;51.534;11.866;2022-10-30T02:17:02;20.38;;;15.57;;
26181;SDS011;13927;51.534;11.866;2022-10-30T02:19:30;22.80;;;16.15;;
26181;SDS011;13927;51.534;11.866;2022-10-30T02:21:55;28.98;;;16.35;;
26181;SDS011;13927;51.534;11.866;2022-10-30T02:24:21;19.33;;;14.48;;
26181;SDS011;13927;51.534;11.866;2022-10-30T02:26:47;22.33;;;17.38;;
26181;SDS011;13927;51.534;11.866;2022-10-30T02:29:13;24.20;;;16.67;;
26181;SDS011;13927;51.534;11.866;2022-10-30T02:31:39;19.70;;;15.70;;
26181;SDS011;13927;51.534;11.866;2022-10-30T02:34:04;24.40;;;16.15;;
26181;SDS011;13927;51.534;11.866;2022-10-30T02:36:30;22.77;;;16.10;;
26181;SDS011;13927;51.534;11.866;2022-10-30T02:38:56;19.95;;;16.02;;
26181;SDS011;13927;51.534;11.866;2022-10-30T02:41:22;22.08;;;16.15;;
26181;SDS011;13927;51.534;11.866;2022-10-30T02:43:49;23.92;;;16.77;;
26181;SDS011;13927;51.534;11.866;2022-10-30T02:46:17;29.10;;;19.10;;
26181;SDS011;13927;51.534;11.866;2022-10-30T02:48:43;27.35;;;17.77;;
26181;SDS011;13927;51.534;11.866;2022-10-30T02:51:09;23.60;;;17.17;;
26181;SDS011;13927;51.534;11.866;2022-10-30T02:53:35;25.30;;;16.65;;
26181;SDS011;13927;51.534;11.866;2022-10-30T02:56:04;27.48;;;17.42;;
26181;SDS011;13927;51.534;11.866;2022-10-30T02:58:32;22.13;;;16.08;;
26181;SDS011;13927;51.534;11.866;2022-10-30T03:01:03;29.00;;;20.67;;
26181;SDS011;13927;51.534;11.866;2022-10-30T03:03:37;24.90;;;17.48;;
26181;SDS011;13927;51.534;11.866;2022-10-30T03:06:04;30.13;;;21.65;;
26181;SDS011;13927;51.534;11.866;2022-10-30T03:08:32;34.75;;;26.95;;
26181;SDS011;13927;51.534;11.866;2022-10-30T03:10:59;32.58;;;25.63;;
26181;SDS011;13927;51.534;11.866;2022-10-30T03:13:27;24.08;;;17.40;;
26181;SDS011;13927;51.534;11.866;2022-10-30T03:15:58;25.63;;;17.63;;
26181;SDS011;13927;51.534;11.866;2022-10-30T03:18:29;21.02;;;16.10;;
26181;SDS011;13927;51.534;11.866;2022-10-30T03:20:56;23.08;;;18.63;;
26181;SDS011;13927;51.534;11.866;2022-10-30T03:23:27;24.88;;;16.85;;
26181;SDS011;13927;51.534;11.866;2022-10-30T03:25:53;22.75;;;16.05;;
26181;SDS011;13927;51.534;11.866;2022-10-30T03:28:21;18.85;;;14.10;;
26181;SDS011;13927;51.534;11.866;2022-10-30T03:30:48;20.60;;;14.98;;
26181;SDS011;13927;51.534;11.866;2022-10-30T03:33:15;19.00;;;15.60;;
26181;SDS011;13927;51.534;11.866;2022-10-30T03:35:44;22.05;;;14.05;;
26181;SDS011;13927;51.534;11.866;2022-10-30T03:38:10;22.55;;;14.50;;
26181;SDS011;13927;51.534;11.866;2022-10-30T03:40:37;22.85;;;15.23;;
26181;SDS011;13927;51.534;11.866;2022-10-30T03:43:03;20.60;;;15.10;;
26181;SDS011;13927;51.534;11.866;2022-10-30T03:45:30;22.50;;;13.95;;
26181;SDS011;13927;51.534;11.866;2022-10-30T03:47:58;20.30;;;14.40;;
26181;SDS011;13927;51.534;11.866;2022-10-30T03:50:29;22.10;;;16.17;;
26181;SDS011;13927;51.534;11.866;2022-10-30T03:52:55;18.63;;;14.05;;
26181;SDS011;13927;51.534;11.866;2022-10-30T03:55:22;23.25;;;13.98;;
26181;SDS011;13927;51.534;11.866;2022-10-30T03:57:49;19.00;;;14.05;;
26181;SDS011;13927;51.534;11.866;2022-10-30T04:00:15;23.98;;;14.13;;
26181;SDS011;13927;51.534;11.866;2022-10-30T04:02:50;27.45;;;16.00;;
26181;SDS011;13927;51.534;11.866;2022-10-30T04:05:17;18.27;;;13.20;;
26181;SDS011;13927;51.534;11.866;2022-10-30T04:07:45;22.70;;;15.40;;
26181;SDS011;13927;51.534;11.866;2022-10-30T04:10:12;17.92;;;14.05;;
26181;SDS011;13927;51.534;11.866;2022-10-30T04:12:38;16.70;;;14.02;;
26181;SDS011;13927;51.534;11.866;2022-10-30T04:15:05;22.40;;;14.55;;
26181;SDS011;13927;51.534;11.866;2022-10-30T04:17:33;20.15;;;13.77;;
26181;SDS011;13927;51.534;11.866;2022-10-30T04:19:59;17.67;;;14.13;;
26181;SDS011;13927;51.534;11.866;2022-10-30T04:22:25;21.25;;;16.08;;
26181;SDS011;13927;51.534;11.866;2022-10-30T04:24:50;22.52;;;16.00;;
26181;SDS011;13927;51.534;11.866;2022-10-30T04:27:17;20.73;;;15.70;;
26181;SDS011;13927;51.534;11.866;2022-10-30T04:29:44;22.63;;;15.63;;
26181;SDS011;13927;51.534;11.866;2022-10-30T04:32:10;21.67;;;16.27;;
26181;SDS011;13927;51.534;11.866;2022-10-30T04:34:36;24.80;;;15.25;;
26181;SDS011;13927;51.534;11.866;2022-10-30T04:37:03;18.27;;;14.50;;
26181;SDS011;13927;51.534;11.866;2022-10-30T04:39:30;21.42;;;14.20;;
26181;SDS011;13927;51.534;11.866;2022-10-30T04:41:56;21.35;;;13.95;;
26181;SDS011;13927;51.534;11.866;2022-10-30T04:44:22;23.10;;;15.90;;
26181;SDS011;13927;51.534;11.866;2022-10-30T04:46:48;18.92;;;14.65;;
26181;SDS011;13927;51.534;11.866;2022-10-30T04:49:13;21.92;;;14.93;;
26181;SDS011;13927;51.534;11.866;2022-10-30T04:51:39;20.65;;;14.85;;
26181;SDS011;13927;51.534;11.866;2022-10-30T04:54:05;20.35;;;15.60;;
26181;SDS011;13927;51.534;11.866;2022-10-30T04:56:31;21.00;;;14.35;;
26181;SDS011;13927;51.534;11.866;2022-10-30T04:58:59;23.75;;;15.65;;
26181;SDS011;13927;51.534;11.866;2022-10-30T05:01:25;22.85;;;15.95;;
26181;SDS011;13927;51.534;11.866;2022-10-30T05:03:51;21.77;;;15.90;;
26181;SDS011;13927;51.534;11.866;2022-10-30T05:06:23;19.48;;;14.85;;
26181;SDS011;13927;51.534;11.866;2022-10-30T05:08:50;17.40;;;14.63;;
26181;SDS011;13927;51.534;11.866;2022-10-30T05:11:16;20.02;;;15.55;;
26181;SDS011;13927;51.534;11.866;2022-10-30T05:13:43;21.02;;;14.65;;
26181;SDS011;13927;51.534;11.866;2022-10-30T05:16:08;27.20;;;16.40;;
26181;SDS011;13927;51.534;11.866;2022-10-30T05:18:34;24.40;;;16.33;;
26181;SDS011;13927;51.534;11.866;2022-10-30T05:21:00;25.10;;;17.35;;
26181;SDS011;13927;51.534;11.866;2022-10-30T05:23:26;27.83;;;17.17;;
26181;SDS011;13927;51.534;11.866;2022-10-30T05:25:51;24.58;;;17.48;;
26181;SDS011;13927;51.534;11.866;2022-10-30T05:28:17;27.17;;;17.88;;
26181;SDS011;13927;51.534;11.866;2022-10-30T05:30:43;25.02;;;16.35;;
26181;SDS011;13927;51.534;11.866;2022-10-30T05:33:09;28.83;;;17.58;;
26181;SDS011;13927;51.534;11.866;2022-10-30T05:35:36;26.25;;;16.35;;
26181;SDS011;13927;51.534;11.866;2022-10-30T05:38:03;22.92;;;15.93;;
26181;SDS011;13927;51.534;11.866;2022-10-30T05:40:31;21.02;;;16.92;;
26181;SDS011;13927;51.534;11.866;2022-10-30T05:42:58;19.08;;;15.38;;
26181;SDS011;13927;51.534;11.866;2022-10-30T05:45:24;18.55;;;15.27;;
26181;SDS011;13927;51.534;11.866;2022-10-30T05:47:54;23.35;;;16.20;;
26181;SDS011;13927;51.534;11.866;2022-10-30T05:54:04;22.25;;;16.00;;
26181;SDS011;13927;51.534;11.866;2022-10-30T05:56:30;22.85;;;16.38;;
26181;SDS011;13927;51.534;11.866;2022-10-30T05:58:56;20.73;;;15.65;;
26181;SDS011;13927;51.534;11.866;2022-10-30T06:01:22;21.90;;;14.82;;
26181;SDS011;13927;51.534;11.866;2022-10-30T06:03:48;24.08;;;15.93;;
26181;SDS011;13927;51.534;11.866;2022-10-30T06:06:14;23.02;;;16.77;;
26181;SDS011;13927;51.534;11.866;2022-10-30T06:08:39;29.83;;;18.75;;
26181;SDS011;13927;51.534;11.866;2022-10-30T06:11:05;31.08;;;17.90;;
26181;SDS011;13927;51.534;11.866;2022-10-30T06:13:32;20.17;;;16.92;;
26181;SDS011;13927;51.534;11.866;2022-10-30T06:15:57;22.58;;;16.15;;
26181;SDS011;13927;51.534;11.866;2022-10-30T06:18:23;21.77;;;16.13;;
26181;SDS011;13927;51.534;11.866;2022-10-30T06:20:49;24.42;;;16.73;;
26181;SDS011;13927;51.534;11.866;2022-10-30T06:23:15;21.27;;;15.80;;
26181;SDS011;13927;51.534;11.866;2022-10-30T06:25:41;23.73;;;15.40;;
26181;SDS011;13927;51.534;11.866;2022-10-30T06:28:08;25.50;;;16.52;;
26181;SDS011;13927;51.534;11.866;2022-10-30T06:30:35;22.52;;;16.52;;
26181;SDS011;13927;51.534;11.866;2022-10-30T06:33:02;25.98;;;16.05;;
26181;SDS011;13927;51.534;11.866;2022-10-30T06:35:29;30.30;;;16.95;;
26181;SDS011;13927;51.534;11.866;2022-10-30T06:37:56;20.85;;;15.63;;
26181;SDS011;13927;51.534;11.866;2022-10-30T06:40:24;20.35;;;15.85;;
26181;SDS011;13927;51.534;11.866;2022-10-30T06:42:51;18.95;;;13.77;;
26181;SDS011;13927;51.534;11.866;2022-10-30T06:45:19;21.70;;;15.32;;
26181;SDS011;13927;51.534;11.866;2022-10-30T06:47:46;23.02;;;14.30;;
26181;SDS011;13927;51.534;11.866;2022-10-30T06:50:13;24.77;;;15.18;;
26181;SDS011;13927;51.534;11.866;2022-10-30T06:52:46;19.42;;;14.25;;
26181;SDS011;13927;51.534;11.866;2022-10-30T06:55:16;16.50;;;12.25;;
26181;SDS011;13927;51.534;11.866;2022-10-30T06:57:43;18.55;;;13.05;;
26181;SDS011;13927;51.534;11.866;2022-10-30T07:00:09;18.13;;;12.93;;
26181;SDS011;13927;51.534;11.866;2022-10-30T07:02:41;22.60;;;13.77;;
26181;SDS011;13927;51.534;11.866;2022-10-30T07:05:07;20.13;;;12.85;;
26181;SDS011;13927;51.534;11.866;2022-10-30T07:07:33;17.45;;;12.32;;
26181;SDS011;13927;51.534;11.866;2022-10-30T07:10:00;17.13;;;11.60;;
26181;SDS011;13927;51.534;11.866;2022-10-30T07:12:26;17.90;;;13.55;;
26181;SDS011;13927;51.534;11.866;2022-10-30T07:14:52;16.60;;;13.00;;
26181;SDS011;13927;51.534;11.866;2022-10-30T07:17:19;20.13;;;14.10;;
26181;SDS011;13927;51.534;11.866;2022-10-30T07:19:45;21.55;;;14.48;;
26181;SDS011;13927;51.534;11.866;2022-10-30T07:22:11;25.25;;;15.43;;
26181;SDS011;13927;51.534;11.866;2022-10-30T07:24:37;21.10;;;14.30;;
26181;SDS011;13927;51.534;11.866;2022-10-30T07:27:05;25.65;;;14.88;;
26181;SDS011;13927;51.534;11.866;2022-10-30T07:29:31;22.55;;;14.75;;
26181;SDS011;13927;51.534;11.866;2022-10-30T07:31:57;23.95;;;15.02;;
26181;SDS011;13927;51.534;11.866;2022-10-30T07:34:22;20.77;;;14.75;;
26181;SDS011;13927;51.534;11.866;2022-10-30T07:36:53;19.73;;;15.02;;
26181;SDS011;13927;51.534;11.866;2022-10-30T07:39:19;21.27;;;14.18;;
26181;SDS011;13927;51.534;11.866;2022-10-30T07:41:47;18.65;;;13.25;;
26181;SDS011;13927;51.534;11.866;2022-10-30T07:44:14;18.23;;;13.02;;
26181;SDS011;13927;51.534;11.866;2022-10-30T07:46:40;19.30;;;14.02;;
26181;SDS011;13927;51.534;11.866;2022-10-30T07:49:05;19.40;;;13.30;;
26181;SDS011;13927;51.534;11.866;2022-10-30T07:51:31;18.17;;;13.07;;
26181;SDS011;13927;51.534;11.866;2022-10-30T07:54:00;15.20;;;11.98;;
26181;SDS011;13927;51.534;11.866;2022-10-30T07:56:27;15.52;;;12.43;;
26181;SDS011;13927;51.534;11.866;2022-10-30T07:58:53;19.38;;;13.25;;
26181;SDS011;13927;51.534;11.866;2022-10-30T08:01:19;17.65;;;12.40;;
26181;SDS011;13927;51.534;11.866;2022-10-30T08:03:45;14.43;;;11.07;;
26181;SDS011;13927;51.534;11.866;2022-10-30T08:06:10;19.38;;;10.18;;
26181;SDS011;13927;51.534;11.866;2022-10-30T08:08:36;18.25;;;10.73;;
26181;SDS011;13927;51.534;11.866;2022-10-30T08:11:02;15.45;;;11.05;;
26181;SDS011;13927;51.534;11.866;2022-10-30T08:13:28;15.88;;;10.15;;
26181;SDS011;13927;51.534;11.866;2022-10-30T08:15:53;19.40;;;9.27;;
26181;SDS011;13927;51.534;11.866;2022-10-30T08:18:19;15.50;;;9.93;;
26181;SDS011;13927;51.534;11.866;2022-10-30T08:20:50;12.88;;;9.05;;
26181;SDS011;13927;51.534;11.866;2022-10-30T08:23:15;12.45;;;9.32;;
26181;SDS011;13927;51.534;11.866;2022-10-30T08:25:47;18.00;;;9.25;;
26181;SDS011;13927;51.534;11.866;2022-10-30T08:28:12;12.20;;;8.45;;
26181;SDS011;13927;51.534;11.866;2022-10-30T08:30:38;17.10;;;8.85;;
26181;SDS011;13927;51.534;11.866;2022-10-30T08:33:05;12.52;;;8.60;;
26181;SDS011;13927;51.534;11.866;2022-10-30T08:35:37;13.70;;;8.60;;
26181;SDS011;13927;51.534;11.866;2022-10-30T08:38:03;14.10;;;8.95;;
26181;SDS011;13927;51.534;11.866;2022-10-30T08:40:29;14.25;;;7.68;;
26181;SDS011;13927;51.534;11.866;2022-10-30T08:42:55;17.38;;;8.50;;
26181;SDS011;13927;51.534;11.866;2022-10-30T08:45:22;12.35;;;6.88;;
26181;SDS011;13927;51.534;11.866;2022-10-30T08:47:59;12.98;;;7.30;;
26181;SDS011;13927;51.534;11.866;2022-10-30T08:50:28;15.07;;;7.18;;
26181;SDS011;13927;51.534;11.866;2022-10-30T08:52:58;10.07;;;6.53;;
26181;SDS011;13927;51.534;11.866;2022-10-30T08:55:32;13.75;;;7.70;;
26181;SDS011;13927;51.534;11.866;2022-10-30T08:57:59;10.45;;;6.43;;
26181;SDS011;13927;51.534;11.866;2022-10-30T09:00:26;14.30;;;6.88;;
26181;SDS011;13927;51.534;11.866;2022-10-30T09:02:53;12.10;;;7.65;;
26181;SDS011;13927;51.534;11.866;2022-10-30T09:05:19;14.40;;;9.15;;
26181;SDS011;13927;51.534;11.866;2022-10-30T09:07:45;10.60;;;6.82;;
26181;SDS011;13927;51.534;11.866;2022-10-30T09:10:12;13.15;;;7.88;;
26181;SDS011;13927;51.534;11.866;2022-10-30T09:12:38;11.18;;;6.60;;
26181;SDS011;13927;51.534;11.866;2022-10-30T09:15:05;12.35;;;6.30;;
26181;SDS011;13927;51.534;11.866;2022-10-30T09:17:32;12.57;;;7.00;;
26181;SDS011;13927;51.534;11.866;2022-10-30T09:19:58;10.32;;;7.03;;
26181;SDS011;13927;51.534;11.866;2022-10-30T09:22:24;10.52;;;6.10;;
26181;SDS011;13927;51.534;11.866;2022-10-30T09:24:50;15.63;;;6.30;;
26181;SDS011;13927;51.534;11.866;2022-10-30T09:27:16;14.40;;;6.38;;
26181;SDS011;13927;51.534;11.866;2022-10-30T09:29:42;9.43;;;6.03;;
26181;SDS011;13927;51.534;11.866;2022-10-30T09:32:09;14.13;;;7.00;;
26181;SDS011;13927;51.534;11.866;2022-10-30T09:34:35;14.20;;;5.97;;
26181;SDS011;13927;51.534;11.866;2022-10-30T09:37:05;9.80;;;5.70;;
26181;SDS011;13927;51.534;11.866;2022-10-30T09:39:31;13.07;;;6.88;;
26181;SDS011;13927;51.534;11.866;2022-10-30T09:44:49;12.10;;;6.38;;
26181;SDS011;13927;51.534;11.866;2022-10-30T09:54:20;14.23;;;7.65;;
26181;SDS011;13927;51.534;11.866;2022-10-30T10:00:11;12.02;;;5.80;;
26181;SDS011;13927;51.534;11.866;2022-10-30T10:02:52;8.85;;;5.78;;
26181;SDS011;13927;51.534;11.866;2022-10-30T10:08:12;10.50;;;5.53;;
26181;SDS011;13927;51.534;11.866;2022-10-30T10:10:53;13.77;;;6.15;;
26181;SDS011;13927;51.534;11.866;2022-10-30T10:13:30;8.73;;;5.82;;
26181;SDS011;13927;51.534;11.866;2022-10-30T10:15:58;14.52;;;6.20;;
26181;SDS011;13927;51.534;11.866;2022-10-30T10:18:56;14.02;;;5.78;;
26181;SDS011;13927;51.534;11.866;2022-10-30T10:21:53;14.02;;;5.95;;
26181;SDS011;13927;51.534;11.866;2022-10-30T10:24:32;11.05;;;5.70;;
26181;SDS011;13927;51.534;11.866;2022-10-30T10:30:44;10.80;;;5.63;;
26181;SDS011;13927;51.534;11.866;2022-10-30T10:33:46;13.45;;;5.47;;
26181;SDS011;13927;51.534;11.866;2022-10-30T10:51:03;11.10;;;5.85;;
26181;SDS011;13927;51.534;11.866;2022-10-30T10:56:16;14.00;;;5.50;;
26181;SDS011;13927;51.534;11.866;2022-10-30T10:58:52;10.25;;;5.40;;
26181;SDS011;13927;51.534;11.866;2022-10-30T11:01:38;13.07;;;5.65;;
26181;SDS011;13927;51.534;11.866;2022-10-30T11:04:13;17.42;;;6.07;;
26181;SDS011;13927;51.534;11.866;2022-10-30T11:06:53;12.00;;;5.40;;
26181;SDS011;13927;51.534;11.866;2022-10-30T11:09:21;8.90;;;6.00;;
26181;SDS011;13927;51.534;11.866;2022-10-30T11:11:49;11.43;;;5.53;;
26181;SDS011;13927;51.534;11.866;2022-10-30T11:14:18;8.93;;;5.60;;
26181;SDS011;13927;51.534;11.866;2022-10-30T11:19:48;12.55;;;6.05;;
26181;SDS011;13927;51.534;11.866;2022-10-30T11:22:27;8.40;;;5.10;;
26181;SDS011;13927;51.534;11.866;2022-10-30T11:25:22;12.88;;;5.50;;
26181;SDS011;13927;51.534;11.866;2022-10-30T11:27:58;13.05;;;5.40;;
26181;SDS011;13927;51.534;11.866;2022-10-30T11:30:26;10.90;;;4.97;;
26181;SDS011;13927;51.534;11.866;2022-10-30T11:32:56;10.02;;;5.38;;
26181;SDS011;13927;51.534;11.866;2022-10-30T11:35:24;12.85;;;5.00;;
26181;SDS011;13927;51.534;11.866;2022-10-30T11:37:51;11.32;;;5.38;;
26181;SDS011;13927;51.534;11.866;2022-10-30T11:40:45;11.32;;;5.88;;
26181;SDS011;13927;51.534;11.866;2022-10-30T11:43:14;10.38;;;5.70;;
26181;SDS011;13927;51.534;11.866;2022-10-30T11:45:46;12.48;;;5.32;;
26181;SDS011;13927;51.534;11.866;2022-10-30T11:48:23;11.70;;;5.78;;
26181;SDS011;13927;51.534;11.866;2022-10-30T11:50:58;12.25;;;5.22;;
26181;SDS011;13927;51.534;11.866;2022-10-30T11:53:27;12.88;;;6.13;;
26181;SDS011;13927;51.534;11.866;2022-10-30T11:56:18;9.05;;;4.78;;
26181;SDS011;13927;51.534;11.866;2022-10-30T11:58:48;16.20;;;6.32;;
26181;SDS011;13927;51.534;11.866;2022-10-30T12:01:30;10.60;;;5.40;;
26181;SDS011;13927;51.534;11.866;2022-10-30T12:04:13;8.95;;;5.28;;
26181;SDS011;13927;51.534;11.866;2022-10-30T12:07:05;10.68;;;5.43;;
26181;SDS011;13927;51.534;11.866;2022-10-30T12:12:11;11.30;;;5.75;;
26181;SDS011;13927;51.534;11.866;2022-10-30T12:15:07;12.27;;;5.28;;
26181;SDS011;13927;51.534;11.866;2022-10-30T12:17:39;12.38;;;4.75;;
26181;SDS011;13927;51.534;11.866;2022-10-30T12:20:37;10.55;;;5.75;;
26181;SDS011;13927;51.534;11.866;2022-10-30T12:23:16;9.70;;;5.40;;
26181;SDS011;13927;51.534;11.866;2022-10-30T12:25:49;9.40;;;4.90;;
26181;SDS011;13927;51.534;11.866;2022-10-30T12:28:19;12.85;;;4.97;;
26181;SDS011;13927;51.534;11.866;2022-10-30T12:33:24;8.82;;;5.43;;
26181;SDS011;13927;51.534;11.866;2022-10-30T12:36:27;9.30;;;4.80;;
26181;SDS011;13927;51.534;11.866;2022-10-30T12:42:20;10.43;;;4.78;;
26181;SDS011;13927;51.534;11.866;2022-10-30T12:50:26;8.48;;;5.57;;
26181;SDS011;13927;51.534;11.866;2022-10-30T12:53:06;13.18;;;5.57;;
26181;SDS011;13927;51.534;11.866;2022-10-30T12:55:40;11.45;;;5.55;;
26181;SDS011;13927;51.534;11.866;2022-10-30T12:58:17;11.10;;;5.45;;
26181;SDS011;13927;51.534;11.866;2022-10-30T13:00:53;10.23;;;5.20;;
26181;SDS011;13927;51.534;11.866;2022-10-30T13:04:07;11.32;;;5.38;;
26181;SDS011;13927;51.534;11.866;2022-10-30T13:09:31;10.57;;;5.45;;
26181;SDS011;13927;51.534;11.866;2022-10-30T13:14:46;12.10;;;5.18;;
26181;SDS011;13927;51.534;11.866;2022-10-30T13:17:18;8.80;;;4.40;;
26181;SDS011;13927;51.534;11.866;2022-10-30T13:19:45;9.80;;;5.05;;
26181;SDS011;13927;51.534;11.866;2022-10-30T13:25:15;9.50;;;4.75;;
26181;SDS011;13927;51.534;11.866;2022-10-30T13:31:16;8.48;;;4.80;;
26181;SDS011;13927;51.534;11.866;2022-10-30T13:34:08;12.48;;;5.40;;
26181;SDS011;13927;51.534;11.866;2022-10-30T13:42:29;11.07;;;4.95;;
26181;SDS011;13927;51.534;11.866;2022-10-30T13:47:59;12.90;;;4.28;;
26181;SDS011;13927;51.534;11.866;2022-10-30T13:53:36;12.32;;;5.13;;
26181;SDS011;13927;51.534;11.866;2022-10-30T13:56:14;8.75;;;4.25;;
26181;SDS011;13927;51.534;11.866;2022-10-30T13:58:46;14.73;;;5.80;;
26181;SDS011;13927;51.534;11.866;2022-10-30T14:07:59;8.50;;;4.75;;
26181;SDS011;13927;51.534;11.866;2022-10-30T14:10:44;8.98;;;4.60;;
26181;SDS011;13927;51.534;11.866;2022-10-30T14:13:16;7.95;;;4.15;;
26181;SDS011;13927;51.534;11.866;2022-10-30T14:18:25;7.78;;;4.07;;
26181;SDS011;13927;51.534;11.866;2022-10-30T14:21:43;11.90;;;4.65;;
26181;SDS011;13927;51.534;11.866;2022-10-30T14:24:22;7.90;;;4.50;;
26181;SDS011;13927;51.534;11.866;2022-10-30T14:27:25;9.27;;;4.65;;
26181;SDS011;13927;51.534;11.866;2022-10-30T14:29:50;10.98;;;4.90;;
26181;SDS011;13927;51.534;11.866;2022-10-30T14:37:15;10.30;;;4.68;;
26181;SDS011;13927;51.534;11.866;2022-10-30T14:40:44;9.32;;;4.68;;
26181;SDS011;13927;51.534;11.866;2022-10-30T14:42:56;11.00;;;5.18;;
26181;SDS011;13927;51.534;11.866;2022-10-30T14:45:32;11.13;;;5.35;;
26181;SDS011;13927;51.534;11.866;2022-10-30T14:52:35;8.73;;;4.68;;
26181;SDS011;13927;51.534;11.866;2022-10-30T14:55:00;11.65;;;5.00;;
26181;SDS011;13927;51.534;11.866;2022-10-30T15:00:42;9.70;;;5.30;;
26181;SDS011;13927;51.534;11.866;2022-10-30T15:05:45;9.18;;;4.93;;
26181;SDS011;13927;51.534;11.866;2022-10-30T15:08:36;14.10;;;5.88;;
26181;SDS011;13927;51.534;11.866;2022-10-30T15:14:17;7.03;;;4.68;;
26181;SDS011;13927;51.534;11.866;2022-10-30T15:17:12;7.85;;;4.78;;
26181;SDS011;13927;51.534;11.866;2022-10-30T15:19:52;10.13;;;5.32;;
26181;SDS011;13927;51.534;11.866;2022-10-30T15:22:19;8.60;;;5.25;;
26181;SDS011;13927;51.534;11.866;2022-10-30T15:24:47;11.15;;;5.80;;
26181;SDS011;13927;51.534;11.866;2022-10-30T15:27:18;12.55;;;5.38;;
26181;SDS011;13927;51.534;11.866;2022-10-30T15:29:58;10.88;;;5.43;;
26181;SDS011;13927;51.534;11.866;2022-10-30T15:32:25;10.52;;;5.60;;
26181;SDS011;13927;51.534;11.866;2022-10-30T15:35:01;12.15;;;5.35;;
26181;SDS011;13927;51.534;11.866;2022-10-30T15:37:29;12.05;;;6.25;;
26181;SDS011;13927;51.534;11.866;2022-10-30T15:40:09;10.77;;;5.75;;
26181;SDS011;13927;51.534;11.866;2022-10-30T15:42:39;14.63;;;5.50;;
26181;SDS011;13927;51.534;11.866;2022-10-30T15:45:10;12.05;;;6.90;;
26181;SDS011;13927;51.534;11.866;2022-10-30T15:47:55;13.07;;;6.45;;
26181;SDS011;13927;51.534;11.866;2022-10-30T15:50:51;13.02;;;8.30;;
26181;SDS011;13927;51.534;11.866;2022-10-30T15:56:03;13.13;;;7.13;;
26181;SDS011;13927;51.534;11.866;2022-10-30T15:58:31;10.65;;;6.72;;
26181;SDS011;13927;51.534;11.866;2022-10-30T16:01:01;12.45;;;7.45;;
26181;SDS011;13927;51.534;11.866;2022-10-30T16:03:27;17.05;;;7.97;;
26181;SDS011;13927;51.534;11.866;2022-10-30T16:08:43;12.18;;;7.57;;
26181;SDS011;13927;51.534;11.866;2022-10-30T16:11:11;17.80;;;8.15;;
26181;SDS011;13927;51.534;11.866;2022-10-30T16:13:38;11.07;;;6.88;;
26181;SDS011;13927;51.534;11.866;2022-10-30T16:16:06;13.70;;;7.38;;
26181;SDS011;13927;51.534;11.866;2022-10-30T16:18:58;13.27;;;7.30;;
26181;SDS011;13927;51.534;11.866;2022-10-30T16:21:26;12.20;;;7.93;;
26181;SDS011;13927;51.534;11.866;2022-10-30T16:23:57;14.00;;;7.85;;
26181;SDS011;13927;51.534;11.866;2022-10-30T16:26:29;15.20;;;7.18;;
26181;SDS011;13927;51.534;11.866;2022-10-30T16:28:58;15.65;;;8.98;;
26181;SDS011;13927;51.534;11.866;2022-10-30T16:31:33;12.60;;;8.00;;
26181;SDS011;13927;51.534;11.866;2022-10-30T16:34:00;14.15;;;7.55;;
26181;SDS011;13927;51.534;11.866;2022-10-30T16:36:28;14.43;;;7.43;;
26181;SDS011;13927;51.534;11.866;2022-10-30T16:38:55;12.05;;;7.53;;
26181;SDS011;13927;51.534;11.866;2022-10-30T16:41:21;10.98;;;7.22;;
26181;SDS011;13927;51.534;11.866;2022-10-30T16:46:54;11.52;;;6.88;;
26181;SDS011;13927;51.534;11.866;2022-10-30T16:49:30;11.82;;;6.85;;
26181;SDS011;13927;51.534;11.866;2022-10-30T16:52:01;10.65;;;7.25;;
26181;SDS011;13927;51.534;11.866;2022-10-30T16:54:37;10.05;;;7.25;;
26181;SDS011;13927;51.534;11.866;2022-10-30T16:57:12;11.23;;;6.95;;
26181;SDS011;13927;51.534;11.866;2022-10-30T16:59:46;12.60;;;7.80;;
26181;SDS011;13927;51.534;11.866;2022-10-30T17:02:14;15.77;;;8.25;;
26181;SDS011;13927;51.534;11.866;2022-10-30T17:04:46;12.20;;;8.35;;